createdAt,value
2018-04-12T00:01:13.346Z,99.63
2018-04-12T00:03:40.830Z,110.10
2018-04-12T00:06:09.039Z,96.13
2018-04-12T00:08:36.518Z,86.43
2018-04-12T00:11:03.990Z,96.43
2018-04-12T00:13:31.812Z,86.90
2018-04-12T00:15:59.276Z,74.30
2018-04-12T00:18:26.738Z,87.20
2018-04-12T00:20:54.216Z,84.33
2018-04-12T00:23:21.678Z,88.50
2018-04-12T00:25:49.162Z,86.70
2018-04-12T00:28:17.382Z,70.83
2018-04-12T00:30:44.922Z,77.93
2018-04-12T00:33:12.384Z,66.00
2018-04-12T00:35:39.839Z,72.07
2018-04-12T00:38:07.314Z,69.23
2018-04-12T00:40:34.821Z,65.97
2018-04-12T00:43:02.245Z,65.77
2018-04-12T00:45:29.887Z,64.60
2018-04-12T00:47:57.356Z,67.43
2018-04-12T00:50:24.820Z,66.97
2018-04-12T00:52:52.284Z,69.53
2018-04-12T00:55:19.759Z,60.83
2018-04-12T00:57:47.238Z,65.13
2018-04-12T01:00:14.694Z,56.63
2018-04-12T01:02:42.190Z,68.60
2018-04-12T01:05:09.647Z,68.83
2018-04-12T01:07:37.115Z,72.30
2018-04-12T01:10:04.595Z,62.87
2018-04-12T01:12:32.043Z,58.27
2018-04-12T01:14:59.541Z,56.27
2018-04-12T01:17:27.103Z,58.40
2018-04-12T01:19:54.618Z,61.70
2018-04-12T01:22:22.070Z,65.97
2018-04-12T01:24:49.633Z,71.40
2018-04-12T01:27:17.084Z,60.40
2018-04-12T01:29:44.584Z,55.10
2018-04-12T01:32:12.044Z,63.40
2018-04-12T01:34:39.524Z,58.67
2018-04-12T01:37:07.743Z,62.13
2018-04-12T01:39:35.315Z,50.83
2018-04-12T01:42:02.795Z,57.17
2018-04-12T01:44:30.283Z,62.63
2018-04-12T01:46:58.547Z,68.70
2018-04-12T01:49:26.236Z,65.30
2018-04-12T01:51:53.799Z,54.23
2018-04-12T01:54:21.278Z,63.07
2018-04-12T01:56:48.744Z,52.90
2018-04-12T01:59:16.219Z,64.60
2018-04-12T02:01:43.692Z,71.77
2018-04-12T02:04:11.195Z,61.70
2018-04-12T02:06:38.651Z,76.40
2018-04-12T02:09:06.106Z,58.23
2018-04-12T02:11:33.576Z,66.47
2018-04-12T02:14:01.054Z,61.77
2018-04-12T02:16:28.514Z,59.80
2018-04-12T02:18:55.999Z,57.43
2018-04-12T02:21:23.488Z,64.63
2018-04-12T02:23:51.715Z,58.03
2018-04-12T02:26:19.179Z,59.03
2018-04-12T02:28:47.474Z,60.07
2018-04-12T02:31:14.913Z,60.90
2018-04-12T02:33:42.396Z,59.97
2018-04-12T02:36:09.842Z,62.57
2018-04-12T02:38:37.300Z,62.00
2018-04-12T02:41:04.788Z,58.00
2018-04-12T02:43:33.050Z,67.30
2018-04-12T02:46:00.552Z,50.37
2018-04-12T02:48:28.029Z,53.50
2018-04-12T02:50:55.479Z,65.03
2018-04-12T02:53:23.141Z,68.37
2018-04-12T02:55:50.615Z,78.80
2018-04-12T02:58:18.109Z,56.07
2018-04-12T03:00:45.608Z,57.67
2018-04-12T03:03:13.078Z,62.73
2018-04-12T03:05:40.530Z,55.40
2018-04-12T03:08:08.016Z,65.10
2018-04-12T03:10:35.488Z,65.47
2018-04-12T03:13:02.986Z,54.57
2018-04-12T03:15:30.457Z,59.50
2018-04-12T03:17:57.922Z,61.60
2018-04-12T03:20:25.386Z,63.33
2018-04-12T03:22:52.842Z,55.13
2018-04-12T03:25:20.326Z,57.03
2018-04-12T03:27:47.783Z,63.93
2018-04-12T03:30:15.271Z,60.73
2018-04-12T03:32:43.492Z,60.37
2018-04-12T03:35:10.980Z,59.27
2018-04-12T03:37:38.468Z,56.10
2018-04-12T03:40:06.714Z,68.23
2018-04-12T03:42:34.196Z,57.77
2018-04-12T03:45:02.414Z,58.70
2018-04-12T03:47:29.975Z,59.73
2018-04-12T03:49:57.492Z,64.23
2018-04-12T03:52:24.952Z,63.40
2018-04-12T03:54:53.179Z,67.83
2018-04-12T03:57:20.663Z,53.90
2018-04-12T03:59:48.132Z,57.80
2018-04-12T04:02:15.579Z,57.30
2018-04-12T04:04:43.056Z,61.80
2018-04-12T04:07:10.539Z,79.00
2018-04-12T04:09:38.000Z,64.73
2018-04-12T04:12:05.453Z,60.70
2018-04-12T04:14:41.346Z,74.07
2018-04-12T04:17:20.778Z,66.50
2018-04-12T04:20:00.074Z,63.43
2018-04-12T04:22:27.708Z,64.90
2018-04-12T04:24:56.030Z,60.73
2018-04-12T04:27:23.482Z,58.20
2018-04-12T04:29:51.034Z,72.60
2018-04-12T04:32:19.267Z,75.90
2018-04-12T04:34:46.756Z,69.57
2018-04-12T04:37:14.219Z,68.37
2018-04-12T04:39:42.457Z,65.73
2018-04-12T04:42:09.938Z,60.97
2018-04-12T04:44:37.402Z,63.93
2018-04-12T04:47:04.860Z,63.70
2018-04-12T04:49:33.108Z,77.37
2018-04-12T04:52:01.346Z,65.77
2018-04-12T04:54:28.820Z,68.30
2018-04-12T04:56:56.300Z,73.00
2018-04-12T04:59:23.783Z,78.83
2018-04-12T05:01:51.235Z,82.90
2018-04-12T05:04:18.686Z,73.37
2018-04-12T05:06:46.159Z,73.53
2018-04-12T05:09:13.619Z,80.90
2018-04-12T05:11:41.104Z,83.87
2018-04-12T05:14:08.595Z,75.33
2018-04-12T05:16:36.047Z,75.97
2018-04-12T05:19:03.508Z,76.23
2018-04-12T05:21:30.995Z,78.20
2018-04-12T05:23:58.462Z,72.93
2018-04-12T05:26:25.923Z,72.23
2018-04-12T05:28:53.403Z,70.70
2018-04-12T05:31:20.874Z,73.03
2018-04-12T05:33:48.351Z,73.03
2018-04-12T05:36:16.017Z,73.73
2018-04-12T05:38:43.512Z,77.57
2018-04-12T05:41:11.646Z,68.00
2018-04-12T05:43:39.981Z,63.67
2018-04-12T05:46:07.443Z,74.53
2018-04-12T05:48:34.913Z,74.13
2018-04-12T05:51:02.550Z,81.07
2018-04-12T05:53:30.024Z,73.07
2018-04-12T05:55:57.515Z,73.40
2018-04-12T05:58:24.999Z,79.47
2018-04-12T06:00:52.475Z,77.20
2018-04-12T06:03:19.942Z,68.87
2018-04-12T06:05:47.507Z,81.20
2018-04-12T06:08:15.010Z,79.17
2018-04-12T06:10:42.459Z,70.13
2018-04-12T06:13:09.929Z,78.20
2018-04-12T06:15:37.421Z,90.27
2018-04-12T06:18:04.905Z,80.87
2018-04-12T06:20:32.360Z,82.33
2018-04-12T06:22:59.806Z,80.13
2018-04-12T06:25:27.291Z,82.63
2018-04-12T06:27:54.770Z,79.70
2018-04-12T06:30:23.119Z,73.53
2018-04-12T06:32:51.366Z,78.20
2018-04-12T06:35:18.823Z,78.50
2018-04-12T06:37:46.327Z,76.27
2018-04-12T06:40:14.554Z,75.97
2018-04-12T06:42:42.022Z,83.53
2018-04-12T06:45:09.503Z,91.50
2018-04-12T06:47:37.754Z,86.13
2018-04-12T06:50:05.252Z,89.93
2018-04-12T06:52:33.499Z,72.40
2018-04-12T06:55:00.983Z,76.80
2018-04-12T06:57:29.234Z,80.63
2018-04-12T06:59:56.699Z,83.30
2018-04-12T07:02:24.180Z,88.03
2018-04-12T07:04:52.399Z,78.97
2018-04-12T07:07:19.879Z,76.20
2018-04-12T07:09:47.327Z,77.97
2018-04-12T07:12:14.795Z,87.63
2018-04-12T07:14:42.262Z,70.33
2018-04-12T07:17:09.760Z,85.73
2018-04-12T07:19:37.220Z,76.00
2018-04-12T07:22:04.676Z,87.27
2018-04-12T07:24:32.153Z,85.63
2018-04-12T07:26:59.639Z,89.80
2018-04-12T07:29:27.108Z,86.83
2018-04-12T07:31:54.558Z,82.33
2018-04-12T07:34:22.035Z,83.40
2018-04-12T07:36:49.510Z,77.50
2018-04-12T07:39:17.000Z,82.00
2018-04-12T07:41:44.544Z,77.57
2018-04-12T07:44:11.991Z,87.67
2018-04-12T07:46:40.230Z,78.37
2018-04-12T07:49:07.696Z,90.20
2018-04-12T07:51:35.956Z,67.27
2018-04-12T07:54:03.428Z,82.87
2018-04-12T07:56:30.893Z,88.77
2018-04-12T07:58:58.373Z,80.17
2018-04-12T08:01:26.603Z,88.80
2018-04-12T08:03:54.083Z,85.53
2018-04-12T08:06:21.530Z,90.90
2018-04-12T08:08:49.016Z,87.60
2018-04-12T08:11:17.297Z,89.07
2018-04-12T08:13:45.568Z,76.47
2018-04-12T08:16:13.788Z,82.10
2018-04-12T08:18:41.244Z,87.20
2018-04-12T08:21:08.729Z,74.17
2018-04-12T08:23:36.218Z,73.20
2018-04-12T08:26:03.667Z,76.70
2018-04-12T08:28:31.140Z,82.23
2018-04-12T08:30:59.383Z,81.50
2018-04-12T08:33:26.838Z,87.40
2018-04-12T08:35:54.323Z,78.47
2018-04-12T08:38:21.774Z,84.80
2018-04-12T08:40:49.254Z,81.67
2018-04-12T08:43:17.527Z,79.30
2018-04-12T08:45:45.046Z,72.50
2018-04-12T08:48:12.536Z,83.07
2018-04-12T08:50:40.004Z,73.30
2018-04-12T08:53:07.467Z,79.17
2018-04-12T08:55:35.711Z,75.67
2018-04-12T08:58:03.158Z,80.43
2018-04-12T09:00:30.644Z,76.87
2018-04-12T09:02:58.124Z,70.90
2018-04-12T09:05:25.585Z,70.97
2018-04-12T09:07:53.062Z,72.10
2018-04-12T09:10:20.633Z,73.27
2018-04-12T09:12:48.089Z,76.70
2018-04-12T09:15:15.563Z,79.30
2018-04-12T09:17:43.043Z,88.90
2018-04-12T09:20:10.530Z,74.40
2018-04-12T09:22:38.042Z,74.70
2018-04-12T09:25:05.496Z,76.37
2018-04-12T09:27:32.963Z,75.10
2018-04-12T09:30:00.470Z,74.40
2018-04-12T09:32:27.959Z,72.50
2018-04-12T09:34:55.428Z,79.43
2018-04-12T09:37:22.883Z,67.50
2018-04-12T09:39:50.376Z,58.40
2018-04-12T09:42:17.876Z,66.43
2018-04-12T09:44:45.370Z,66.00
2018-04-12T09:47:12.826Z,62.30
2018-04-12T09:49:40.284Z,63.13
2018-04-12T09:52:07.763Z,66.63
2018-04-12T09:54:35.244Z,55.67
2018-04-12T09:57:03.464Z,61.70
2018-04-12T09:59:30.961Z,67.00
2018-04-12T10:02:01.394Z,59.70
2018-04-12T10:04:29.712Z,61.83
2018-04-12T10:07:10.007Z,68.03
2018-04-12T10:09:37.451Z,65.47
2018-04-12T10:12:04.957Z,57.67
2018-04-12T10:14:32.404Z,55.63
2018-04-12T10:16:59.880Z,52.70
2018-04-12T10:19:27.364Z,54.10
2018-04-12T10:21:54.887Z,61.33
2018-04-12T10:24:23.127Z,53.47
2018-04-12T10:26:50.588Z,52.70
2018-04-12T10:29:18.088Z,48.70
2018-04-12T10:31:47.226Z,51.43
2018-04-12T10:34:14.673Z,50.73
2018-04-12T10:36:42.139Z,47.93
2018-04-12T10:39:09.627Z,48.73
2018-04-12T10:41:37.196Z,59.37
2018-04-12T10:44:05.524Z,51.23
2018-04-12T10:46:33.122Z,45.13
2018-04-12T10:49:00.582Z,50.00
2018-04-12T10:51:28.105Z,52.43
2018-04-12T10:53:55.547Z,49.40
2018-04-12T10:56:23.039Z,42.10
2018-04-12T10:58:50.503Z,43.77
2018-04-12T11:01:17.979Z,40.50
2018-04-12T11:03:45.451Z,48.07
2018-04-12T11:06:12.931Z,44.80
2018-04-12T11:08:40.388Z,49.77
2018-04-12T11:11:07.876Z,63.30
2018-04-12T11:13:35.363Z,47.23
2018-04-12T11:16:02.825Z,51.23
2018-04-12T11:18:30.352Z,48.40
2018-04-12T11:20:57.879Z,48.63
2018-04-12T11:23:26.118Z,42.73
2018-04-12T11:25:53.596Z,53.50
2018-04-12T11:28:21.091Z,79.53
2018-04-12T11:30:48.539Z,45.33
2018-04-12T11:33:15.991Z,56.80
2018-04-12T11:35:44.407Z,44.43
2018-04-12T11:38:11.868Z,51.23
2018-04-12T11:40:39.327Z,51.70
2018-04-12T11:43:06.796Z,40.13
2018-04-12T11:45:34.254Z,47.83
2018-04-12T11:48:01.751Z,40.63
2018-04-12T11:50:30.024Z,45.47
2018-04-12T11:52:58.262Z,37.70
2018-04-12T11:55:25.728Z,44.20
2018-04-12T11:57:53.980Z,44.33
2018-04-12T12:00:21.451Z,38.53
2018-04-12T12:02:48.904Z,44.90
2018-04-12T12:05:16.387Z,39.00
2018-04-12T12:07:43.877Z,40.43
2018-04-12T12:10:11.365Z,40.60
2018-04-12T12:12:38.855Z,49.47
2018-04-12T12:15:06.323Z,38.73
2018-04-12T12:17:33.810Z,40.30
2018-04-12T12:20:01.284Z,41.63
2018-04-12T12:22:28.730Z,36.67
2018-04-12T12:24:56.982Z,37.27
2018-04-12T12:27:24.445Z,43.80
2018-04-12T12:29:51.919Z,42.73
2018-04-12T12:32:20.329Z,36.73
2018-04-12T12:34:47.788Z,33.63
2018-04-12T12:37:15.279Z,37.90
2018-04-12T12:39:42.794Z,44.43
2018-04-12T12:42:10.267Z,34.13
2018-04-12T12:44:37.815Z,37.37
2018-04-12T12:47:05.317Z,35.57
2018-04-12T12:49:32.787Z,44.80
2018-04-12T12:52:00.253Z,51.67
2018-04-12T12:54:27.721Z,33.60
2018-04-12T12:56:56.046Z,34.30
2018-04-12T12:59:23.537Z,37.57
2018-04-12T13:01:50.991Z,36.33
2018-04-12T13:04:18.473Z,42.33
2018-04-12T13:06:45.944Z,38.60
2018-04-12T13:09:13.429Z,38.73
2018-04-12T13:11:40.954Z,35.90
2018-04-12T13:14:09.198Z,47.27
2018-04-12T13:16:36.700Z,40.87
2018-04-12T13:19:04.927Z,39.43
2018-04-12T13:21:32.503Z,41.80
2018-04-12T13:23:59.979Z,36.83
2018-04-12T13:26:27.452Z,39.57
2018-04-12T13:28:55.688Z,44.03
2018-04-12T13:31:23.169Z,41.07
2018-04-12T13:33:50.632Z,34.80
2018-04-12T13:36:18.123Z,37.87
2018-04-12T13:38:45.616Z,38.90
2018-04-12T13:41:13.111Z,39.50
2018-04-12T13:43:41.342Z,32.60
2018-04-12T13:46:09.564Z,35.47
2018-04-12T13:48:37.058Z,33.50
2018-04-12T13:51:04.527Z,36.37
2018-04-12T13:53:32.015Z,38.50
2018-04-12T13:55:59.458Z,42.50
2018-04-12T13:58:26.940Z,32.87
2018-04-12T14:00:54.400Z,38.10
2018-04-12T14:03:21.891Z,34.23
2018-04-12T14:05:49.347Z,35.50
2018-04-12T14:08:16.803Z,31.70
2018-04-12T14:10:45.216Z,32.43
2018-04-12T14:13:12.790Z,37.60
2018-04-12T14:15:40.283Z,29.63
2018-04-12T14:18:08.498Z,33.77
2018-04-12T14:20:35.963Z,32.63
2018-04-12T14:23:03.468Z,35.17
2018-04-12T14:25:30.927Z,39.13
2018-04-12T14:27:58.397Z,32.70
2018-04-12T14:30:25.888Z,40.50
2018-04-12T14:32:53.368Z,38.87
2018-04-12T14:35:21.146Z,30.17
2018-04-12T14:37:48.628Z,30.83
2018-04-12T14:40:16.104Z,57.47
2018-04-12T14:42:43.586Z,38.63
2018-04-12T14:45:11.063Z,44.77
2018-04-12T14:47:38.538Z,39.70
2018-04-12T14:50:06.015Z,34.03
2018-04-12T14:52:33.490Z,33.00
2018-04-12T14:55:00.972Z,37.20
2018-04-12T14:57:28.442Z,32.50
2018-04-12T14:59:55.914Z,35.50
2018-04-12T15:02:23.387Z,36.70
2018-04-12T15:04:50.903Z,32.40
2018-04-12T15:07:18.322Z,33.37
2018-04-12T15:09:45.801Z,32.17
2018-04-12T15:12:14.051Z,29.97
2018-04-12T15:14:41.598Z,34.60
2018-04-12T15:17:09.176Z,33.50
2018-04-12T15:19:36.623Z,34.63
2018-04-12T15:22:04.075Z,40.00
2018-04-12T15:24:32.333Z,40.40
2018-04-12T15:26:59.815Z,32.50
2018-04-12T15:29:27.304Z,38.60
2018-04-12T15:31:55.593Z,29.47
2018-04-12T15:34:23.802Z,36.53
2018-04-12T15:36:52.263Z,35.73
2018-04-12T15:39:19.740Z,30.60
2018-04-12T15:41:47.208Z,31.70
2018-04-12T15:44:15.682Z,29.40
2018-04-12T15:46:43.146Z,27.33
2018-04-12T15:49:10.628Z,28.13
2018-04-12T15:51:38.107Z,31.27
2018-04-12T15:54:06.329Z,36.43
2018-04-12T15:56:33.812Z,42.80
2018-04-12T15:59:01.345Z,33.80
2018-04-12T16:01:28.802Z,40.83
2018-04-12T16:03:56.276Z,30.13
2018-04-12T16:06:23.755Z,38.53
2018-04-12T16:08:51.238Z,33.97
2018-04-12T16:11:18.697Z,41.00
2018-04-12T16:13:46.187Z,42.27
2018-04-12T16:16:13.647Z,37.50
2018-04-12T16:18:41.128Z,40.90
2018-04-12T16:21:08.619Z,40.10
2018-04-12T16:23:36.170Z,40.33
2018-04-12T16:26:03.622Z,39.03
2018-04-12T16:28:31.082Z,47.40
2018-04-12T16:30:58.603Z,37.03
2018-04-12T16:33:26.068Z,41.33
2018-04-12T16:35:53.636Z,41.00
2018-04-12T16:38:21.177Z,52.27
2018-04-12T16:40:48.650Z,34.73
2018-04-12T16:43:16.295Z,45.23
2018-04-12T16:45:43.767Z,45.20
2018-04-12T16:48:11.244Z,49.57
2018-04-12T16:50:38.725Z,47.73
2018-04-12T16:53:06.180Z,43.80
2018-04-12T16:55:33.695Z,47.70
2018-04-12T16:58:01.177Z,51.93
2018-04-12T17:00:28.661Z,58.50
2018-04-12T17:02:56.169Z,48.03
2018-04-12T17:05:23.635Z,53.33
2018-04-12T17:07:51.107Z,50.73
2018-04-12T17:10:18.568Z,50.93
2018-04-12T17:12:46.052Z,52.07
2018-04-12T17:15:13.527Z,59.20
2018-04-12T17:17:41.763Z,50.83
2018-04-12T17:20:09.299Z,57.40
2018-04-12T17:22:36.784Z,64.00
2018-04-12T17:25:04.249Z,56.53
2018-04-12T17:27:31.743Z,50.47
2018-04-12T17:29:59.286Z,62.60
2018-04-12T17:32:26.743Z,57.73
2018-04-12T17:34:54.220Z,53.97
2018-04-12T17:37:22.511Z,55.27
2018-04-12T17:39:49.958Z,61.17
2018-04-12T17:42:18.342Z,49.97
2018-04-12T17:44:45.832Z,63.10
2018-04-12T17:47:13.673Z,68.97
2018-04-12T17:49:41.154Z,51.83
2018-04-12T17:52:08.770Z,52.30
2018-04-12T17:54:37.043Z,54.20
2018-04-12T17:57:04.489Z,55.67
2018-04-12T17:59:31.931Z,60.67
2018-04-12T18:01:59.426Z,54.53
2018-04-12T18:04:27.689Z,55.37
2018-04-12T18:06:55.143Z,57.43
2018-04-12T18:09:22.623Z,56.97
2018-04-12T18:11:50.847Z,62.17
2018-04-12T18:14:18.294Z,55.83
2018-04-12T18:16:45.779Z,62.40
2018-04-12T18:19:13.236Z,63.70
2018-04-12T18:21:41.566Z,58.60
2018-04-12T18:24:09.041Z,63.20
2018-04-12T18:26:36.515Z,73.50
2018-04-12T18:29:03.980Z,68.77
2018-04-12T18:31:31.456Z,72.23
2018-04-12T18:33:58.915Z,64.00
2018-04-12T18:36:26.391Z,63.57
2018-04-12T18:38:53.847Z,69.83
2018-04-12T18:41:21.627Z,68.63
2018-04-12T18:43:49.155Z,64.03
2018-04-12T18:46:16.614Z,57.83
2018-04-12T18:48:44.238Z,60.13
2018-04-12T18:51:12.717Z,66.13
2018-04-12T18:53:40.212Z,68.60
2018-04-12T18:56:07.693Z,65.00
2018-04-12T18:58:35.411Z,67.10
2018-04-12T19:01:03.077Z,67.27
2018-04-12T19:03:30.589Z,71.27
2018-04-12T19:05:58.971Z,79.13
2018-04-12T19:08:26.567Z,68.93
2018-04-12T19:13:28.003Z,69.80
2018-04-12T19:15:55.592Z,60.37
2018-04-12T19:18:23.153Z,75.13
2018-04-12T19:20:51.183Z,69.70
2018-04-12T19:23:18.777Z,66.43
2018-04-12T19:25:46.452Z,70.43
2018-04-12T19:28:14.036Z,69.83
2018-04-12T19:30:42.558Z,67.57
2018-04-12T19:33:10.108Z,68.20
2018-04-12T19:35:37.939Z,91.93
2018-04-12T19:38:05.503Z,84.07
2018-04-12T19:40:33.108Z,75.30
2018-04-12T19:43:01.488Z,66.87
2018-04-12T19:45:28.981Z,71.60
2018-04-12T19:47:56.698Z,82.20
2018-04-12T19:50:24.236Z,69.37
2018-04-12T19:52:51.714Z,88.83
2018-04-12T19:55:19.222Z,76.63
2018-04-12T19:57:46.798Z,91.17
2018-04-12T20:00:14.459Z,70.50
2018-04-12T20:02:42.069Z,80.50
2018-04-12T20:05:10.324Z,74.37
2018-04-12T20:07:37.821Z,79.80
2018-04-12T20:10:05.444Z,83.00
2018-04-12T20:12:32.947Z,77.00
2018-04-12T20:15:00.535Z,83.77
2018-04-12T20:17:28.257Z,82.67
2018-04-12T20:19:55.824Z,80.32
2018-04-12T20:22:24.063Z,84.60
2018-04-12T20:24:51.581Z,75.27
2018-04-12T20:27:19.058Z,76.30
2018-04-12T20:29:46.624Z,72.43
2018-04-12T20:32:14.104Z,69.63
2018-04-12T20:34:41.587Z,67.90
2018-04-12T20:37:09.844Z,76.50
2018-04-12T20:39:37.314Z,73.77
2018-04-12T20:42:05.545Z,68.10
2018-04-12T20:44:33.017Z,75.20
2018-04-12T20:47:00.615Z,71.93
2018-04-12T20:49:28.086Z,85.33
2018-04-12T20:51:55.559Z,82.30
2018-04-12T20:54:23.045Z,80.70
2018-04-12T20:56:50.523Z,86.70
2018-04-12T20:59:17.995Z,80.40
2018-04-12T21:01:45.467Z,83.87
2018-04-12T21:04:13.699Z,85.47
2018-04-12T21:06:41.199Z,79.73
2018-04-12T21:09:09.438Z,85.67
2018-04-12T21:11:36.922Z,81.00
2018-04-12T21:14:04.395Z,81.03
2018-04-12T21:16:32.623Z,82.73
2018-04-12T21:19:00.882Z,86.23
2018-04-12T21:21:28.343Z,74.57
2018-04-12T21:23:55.823Z,80.63
2018-04-12T21:26:23.288Z,93.17
2018-04-12T21:28:50.789Z,84.93
2018-04-12T21:31:19.016Z,89.83
2018-04-12T21:33:46.486Z,82.63
2018-04-12T21:36:13.963Z,85.67
2018-04-12T21:38:41.419Z,82.73
2018-04-12T21:41:08.919Z,88.23
2018-04-12T21:43:36.386Z,91.33
2018-04-12T21:46:03.839Z,87.80
2018-04-12T21:48:31.318Z,83.57
2018-04-12T21:50:58.783Z,85.60
2018-04-12T21:53:26.259Z,90.80
2018-04-12T21:55:53.743Z,93.37
2018-04-12T21:58:21.266Z,89.90
2018-04-12T22:00:48.752Z,86.97
2018-04-12T22:03:16.976Z,87.50
2018-04-12T22:05:44.460Z,89.77
2018-04-12T22:08:12.683Z,87.80
2018-04-12T22:10:40.256Z,90.83
2018-04-12T22:13:07.711Z,85.07
2018-04-12T22:15:35.196Z,87.17
2018-04-12T22:18:02.679Z,86.83
2018-04-12T22:20:30.167Z,80.90
2018-04-12T22:22:57.621Z,79.40
2018-04-12T22:25:25.116Z,97.07
2018-04-12T22:27:52.575Z,91.07
2018-04-12T22:30:20.054Z,107.77
2018-04-12T22:32:47.548Z,99.23
2018-04-12T23:03:47.459Z,98.83
2018-04-12T23:06:14.964Z,101.23
2018-04-12T23:08:42.516Z,105.90
2018-04-12T23:11:09.979Z,95.03
2018-04-12T23:13:37.464Z,91.93
2018-04-12T23:16:04.919Z,96.20
2018-04-12T23:18:32.395Z,98.73
2018-04-12T23:20:59.851Z,96.63
2018-04-12T23:23:27.332Z,98.20
2018-04-12T23:25:54.798Z,101.10
2018-04-12T23:28:22.283Z,93.63
2018-04-12T23:30:49.731Z,98.43
2018-04-12T23:33:17.182Z,100.60
2018-04-12T23:35:44.659Z,94.17
2018-04-12T23:38:12.116Z,104.17
2018-04-12T23:40:39.654Z,95.27
2018-04-12T23:43:07.903Z,114.70
2018-04-12T23:45:35.428Z,101.10
2018-04-12T23:48:02.891Z,92.53
2018-04-12T23:50:30.383Z,105.07
2018-04-12T23:52:57.862Z,102.23
2018-04-12T23:55:25.316Z,98.20
2018-04-12T23:57:52.804Z,102.50
